sensor_id;sensor_type;location;lat;lon;timestamp;pressure;altitude;pressure_sealevel;temperature;humidity
56074;BME280;41950;55.840;37.442;2023-02-28T00:01:02;100157.81;;;-7.93;83.36
56074;BME280;41950;55.840;37.442;2023-02-28T00:03:27;100076.19;;;-8.36;83.51
56074;BME280;41950;55.840;37.442;2023-02-28T00:05:53;100141.91;;;-7.92;83.62
56074;BME280;41950;55.840;37.442;2023-02-28T00:08:19;100124.47;;;-8.02;83.35
56074;BME280;41950;55.840;37.442;2023-02-28T00:10:44;100130.28;;;-7.90;83.36
56074;BME280;41950;55.840;37.442;2023-02-28T00:13:10;100086.50;;;-8.19;83.04
56074;BME280;41950;55.840;37.442;2023-02-28T00:15:36;100141.22;;;-7.90;83.38
56074;BME280;41950;55.840;37.442;2023-02-28T00:18:02;100097.06;;;-8.11;83.11
56074;BME280;41950;55.840;37.442;2023-02-28T00:20:28;100125.63;;;-7.97;83.43
56074;BME280;41950;55.840;37.442;2023-02-28T00:22:55;100101.50;;;-8.07;83.34
56074;BME280;41950;55.840;37.442;2023-02-28T00:25:23;100113.50;;;-8.03;83.56
56074;BME280;41950;55.840;37.442;2023-02-28T00:27:49;100122.31;;;-7.96;83.57
56074;BME280;41950;55.840;37.442;2023-02-28T00:30:18;100117.59;;;-7.92;83.54
56074;BME280;41950;55.840;37.442;2023-02-28T00:32:44;100084.94;;;-8.03;83.25
56074;BME280;41950;55.840;37.442;2023-02-28T00:35:10;100118.84;;;-7.85;83.18
56074;BME280;41950;55.840;37.442;2023-02-28T00:37:37;100083.47;;;-8.00;82.91
56074;BME280;41950;55.840;37.442;2023-02-28T00:40:04;100108.94;;;-7.95;82.83
56074;BME280;41950;55.840;37.442;2023-02-28T00:42:34;100112.16;;;-7.98;82.68
56074;BME280;41950;55.840;37.442;2023-02-28T00:45:00;100073.59;;;-8.23;82.87
56074;BME280;41950;55.840;37.442;2023-02-28T00:47:26;100090.88;;;-8.16;82.72
56074;BME280;41950;55.840;37.442;2023-02-28T00:49:51;100106.53;;;-8.07;82.92
56074;BME280;41950;55.840;37.442;2023-02-28T00:52:18;100087.75;;;-8.12;82.98
56074;BME280;41950;55.840;37.442;2023-02-28T00:54:44;100050.47;;;-8.31;82.89
56074;BME280;41950;55.840;37.442;2023-02-28T00:57:10;100068.78;;;-8.20;83.22
56074;BME280;41950;55.840;37.442;2023-02-28T00:59:35;100076.72;;;-8.14;83.07
56074;BME280;41950;55.840;37.442;2023-02-28T01:02:01;100051.53;;;-8.27;83.10
56074;BME280;41950;55.840;37.442;2023-02-28T01:04:27;100070.91;;;-8.13;83.18
56074;BME280;41950;55.840;37.442;2023-02-28T01:06:52;100055.69;;;-8.28;83.45
56074;BME280;41950;55.840;37.442;2023-02-28T01:09:18;100019.81;;;-8.52;83.27
56074;BME280;41950;55.840;37.442;2023-02-28T01:11:43;100040.31;;;-8.32;83.74
56074;BME280;41950;55.840;37.442;2023-02-28T01:14:16;99994.09;;;-8.61;83.67
56074;BME280;41950;55.840;37.442;2023-02-28T01:16:44;100048.84;;;-8.30;83.85
56074;BME280;41950;55.840;37.442;2023-02-28T01:19:10;100036.09;;;-8.33;83.88
56074;BME280;41950;55.840;37.442;2023-02-28T01:21:35;100036.94;;;-8.33;83.81
56074;BME280;41950;55.840;37.442;2023-02-28T01:24:02;99987.97;;;-8.51;83.92
56074;BME280;41950;55.840;37.442;2023-02-28T01:26:28;100037.31;;;-8.27;83.89
56074;BME280;41950;55.840;37.442;2023-02-28T01:28:54;100010.81;;;-8.35;83.90
56074;BME280;41950;55.840;37.442;2023-02-28T01:31:21;100020.97;;;-8.20;83.83
56074;BME280;41950;55.840;37.442;2023-02-28T01:33:47;100002.06;;;-8.27;83.60
56074;BME280;41950;55.840;37.442;2023-02-28T01:36:16;100002.75;;;-8.29;83.64
56074;BME280;41950;55.840;37.442;2023-02-28T01:38:43;99990.41;;;-8.39;83.55
56074;BME280;41950;55.840;37.442;2023-02-28T01:41:15;99966.00;;;-8.54;83.58
56074;BME280;41950;55.840;37.442;2023-02-28T01:46:10;99989.91;;;-8.34;83.97
56074;BME280;41950;55.840;37.442;2023-02-28T01:48:49;99959.84;;;-8.46;83.76
56074;BME280;41950;55.840;37.442;2023-02-28T01:51:22;99976.00;;;-8.27;83.88
56074;BME280;41950;55.840;37.442;2023-02-28T01:53:58;99981.06;;;-8.27;84.10
56074;BME280;41950;55.840;37.442;2023-02-28T01:56:29;99951.88;;;-8.38;83.82
56074;BME280;41950;55.840;37.442;2023-02-28T01:58:56;99962.56;;;-8.28;83.96
56074;BME280;41950;55.840;37.442;2023-02-28T02:01:26;99966.72;;;-8.28;83.98
56074;BME280;41950;55.840;37.442;2023-02-28T02:03:55;99972.53;;;-8.29;83.99
56074;BME280;41950;55.840;37.442;2023-02-28T02:06:37;99947.72;;;-8.38;84.02
56074;BME280;41950;55.840;37.442;2023-02-28T02:09:03;99928.25;;;-8.40;84.12
56074;BME280;41950;55.840;37.442;2023-02-28T02:11:29;99919.75;;;-8.43;83.82
56074;BME280;41950;55.840;37.442;2023-02-28T02:14:00;99958.00;;;-8.20;83.83
56074;BME280;41950;55.840;37.442;2023-02-28T02:28:17;99927.03;;;-8.19;84.03
56074;BME280;41950;55.840;37.442;2023-02-28T02:31:12;99927.13;;;-8.18;83.81
56074;BME280;41950;55.840;37.442;2023-02-28T02:37:05;99894.16;;;-8.35;83.67
56074;BME280;41950;55.840;37.442;2023-02-28T02:40:07;99907.84;;;-8.17;83.87
56074;BME280;41950;55.840;37.442;2023-02-28T02:45:32;99897.38;;;-8.23;83.97
56074;BME280;41950;55.840;37.442;2023-02-28T02:48:06;99856.13;;;-8.40;83.86
56074;BME280;41950;55.840;37.442;2023-02-28T02:50:54;99889.03;;;-8.22;83.72
56074;BME280;41950;55.840;37.442;2023-02-28T02:53:24;99889.16;;;-8.21;83.94
56074;BME280;41950;55.840;37.442;2023-02-28T02:55:52;99824.13;;;-8.56;83.85
56074;BME280;41950;55.840;37.442;2023-02-28T02:58:24;99881.41;;;-8.24;83.72
56074;BME280;41950;55.840;37.442;2023-02-28T03:00:54;99846.94;;;-8.39;83.90
56074;BME280;41950;55.840;37.442;2023-02-28T03:03:22;99826.06;;;-8.52;83.82
56074;BME280;41950;55.840;37.442;2023-02-28T03:05:54;99868.22;;;-8.34;84.11
56074;BME280;41950;55.840;37.442;2023-02-28T03:08:20;99814.84;;;-8.57;84.18
56074;BME280;41950;55.840;37.442;2023-02-28T03:10:49;99853.91;;;-8.35;83.91
56074;BME280;41950;55.840;37.442;2023-02-28T03:21:46;99822.38;;;-8.44;83.80
56074;BME280;41950;55.840;37.442;2023-02-28T03:24:27;99783.69;;;-8.59;84.05
56074;BME280;41950;55.840;37.442;2023-02-28T03:27:08;99787.16;;;-8.57;83.66
56074;BME280;41950;55.840;37.442;2023-02-28T03:29:40;99802.84;;;-8.48;83.34
56074;BME280;41950;55.840;37.442;2023-02-28T03:32:21;99753.41;;;-8.75;83.73
56074;BME280;41950;55.840;37.442;2023-02-28T03:35:03;99807.97;;;-8.46;83.27
56074;BME280;41950;55.840;37.442;2023-02-28T03:37:34;99758.31;;;-8.77;83.22
56074;BME280;41950;55.840;37.442;2023-02-28T03:40:08;99828.72;;;-8.35;83.22
56074;BME280;41950;55.840;37.442;2023-02-28T03:42:39;99823.69;;;-8.35;83.22
56074;BME280;41950;55.840;37.442;2023-02-28T03:45:14;99815.19;;;-8.37;83.17
56074;BME280;41950;55.840;37.442;2023-02-28T03:48:08;99818.91;;;-8.46;83.22
56074;BME280;41950;55.840;37.442;2023-02-28T03:53:10;99774.06;;;-8.66;83.46
56074;BME280;41950;55.840;37.442;2023-02-28T03:55:49;99779.44;;;-8.60;83.50
56074;BME280;41950;55.840;37.442;2023-02-28T03:58:27;99783.09;;;-8.55;83.63
56074;BME280;41950;55.840;37.442;2023-02-28T04:01:04;99763.91;;;-8.67;83.39
56074;BME280;41950;55.840;37.442;2023-02-28T04:03:34;99780.59;;;-8.55;83.84
56074;BME280;41950;55.840;37.442;2023-02-28T04:06:00;99734.25;;;-8.86;83.44
56074;BME280;41950;55.840;37.442;2023-02-28T04:08:25;99770.53;;;-8.55;83.34
56074;BME280;41950;55.840;37.442;2023-02-28T04:13:55;99728.44;;;-8.85;83.35
56074;BME280;41950;55.840;37.442;2023-02-28T04:16:21;99777.09;;;-8.57;83.46
56074;BME280;41950;55.840;37.442;2023-02-28T04:18:46;99768.00;;;-8.55;83.29
56074;BME280;41950;55.840;37.442;2023-02-28T04:21:13;99703.13;;;-8.88;83.20
56074;BME280;41950;55.840;37.442;2023-02-28T04:23:39;99727.81;;;-8.68;82.91
56074;BME280;41950;55.840;37.442;2023-02-28T04:26:05;99759.75;;;-8.52;83.12
56074;BME280;41950;55.840;37.442;2023-02-28T04:28:31;99729.81;;;-8.62;82.61
56074;BME280;41950;55.840;37.442;2023-02-28T04:31:00;99712.47;;;-8.73;82.56
56074;BME280;41950;55.840;37.442;2023-02-28T04:33:26;99743.00;;;-8.52;82.39
56074;BME280;41950;55.840;37.442;2023-02-28T04:36:07;99737.22;;;-8.51;82.22
56074;BME280;41950;55.840;37.442;2023-02-28T04:38:37;99723.75;;;-8.51;82.36
56074;BME280;41950;55.840;37.442;2023-02-28T04:41:04;99686.44;;;-8.73;82.10
56074;BME280;41950;55.840;37.442;2023-02-28T04:43:30;99684.28;;;-8.67;81.82
56074;BME280;41950;55.840;37.442;2023-02-28T04:45:57;99714.06;;;-8.45;81.40
56074;BME280;41950;55.840;37.442;2023-02-28T04:48:35;99680.09;;;-8.66;80.96
56074;BME280;41950;55.840;37.442;2023-02-28T04:51:03;99687.56;;;-8.53;80.94
56074;BME280;41950;55.840;37.442;2023-02-28T04:53:29;99706.94;;;-8.37;80.91
56074;BME280;41950;55.840;37.442;2023-02-28T04:55:56;99706.16;;;-8.36;80.54
56074;BME280;41950;55.840;37.442;2023-02-28T04:58:22;99674.16;;;-8.39;80.69
56074;BME280;41950;55.840;37.442;2023-02-28T05:00:52;99689.72;;;-8.30;80.37
56074;BME280;41950;55.840;37.442;2023-02-28T05:03:19;99631.97;;;-8.58;79.72
56074;BME280;41950;55.840;37.442;2023-02-28T05:05:46;99631.78;;;-8.61;79.60
56074;BME280;41950;55.840;37.442;2023-02-28T05:08:12;99684.94;;;-8.25;79.63
56074;BME280;41950;55.840;37.442;2023-02-28T05:10:38;99630.94;;;-8.47;79.26
56074;BME280;41950;55.840;37.442;2023-02-28T05:13:03;99628.75;;;-8.40;78.92
56074;BME280;41950;55.840;37.442;2023-02-28T05:15:29;99643.19;;;-8.22;78.96
56074;BME280;41950;55.840;37.442;2023-02-28T05:17:55;99624.28;;;-8.30;78.06
56074;BME280;41950;55.840;37.442;2023-02-28T05:20:21;99659.88;;;-8.09;77.64
56074;BME280;41950;55.840;37.442;2023-02-28T05:22:46;99607.44;;;-8.31;77.67
56074;BME280;41950;55.840;37.442;2023-02-28T05:25:19;99634.53;;;-8.12;77.81
56074;BME280;41950;55.840;37.442;2023-02-28T05:27:45;99602.56;;;-8.13;77.46
56074;BME280;41950;55.840;37.442;2023-02-28T05:30:11;99607.84;;;-8.08;77.30
56074;BME280;41950;55.840;37.442;2023-02-28T05:32:40;99618.88;;;-7.92;77.57
56074;BME280;41950;55.840;37.442;2023-02-28T05:35:12;99558.66;;;-8.18;76.21
56074;BME280;41950;55.840;37.442;2023-02-28T05:37:38;99571.91;;;-8.06;76.28
56074;BME280;41950;55.840;37.442;2023-02-28T05:40:05;99605.44;;;-7.76;75.89
56074;BME280;41950;55.840;37.442;2023-02-28T05:42:32;99603.16;;;-7.71;75.64
56074;BME280;41950;55.840;37.442;2023-02-28T05:44:58;99528.00;;;-8.11;75.51
56074;BME280;41950;55.840;37.442;2023-02-28T05:47:24;99584.13;;;-7.66;75.83
56074;BME280;41950;55.840;37.442;2023-02-28T05:49:50;99571.69;;;-7.63;75.38
56074;BME280;41950;55.840;37.442;2023-02-28T05:52:16;99569.63;;;-7.54;75.32
56074;BME280;41950;55.840;37.442;2023-02-28T05:54:42;99576.63;;;-7.49;74.61
56074;BME280;41950;55.840;37.442;2023-02-28T05:57:07;99560.50;;;-7.52;73.89
56074;BME280;41950;55.840;37.442;2023-02-28T05:59:33;99556.88;;;-7.25;73.08
56074;BME280;41950;55.840;37.442;2023-02-28T06:01:59;99521.28;;;-7.47;72.98
56074;BME280;41950;55.840;37.442;2023-02-28T06:04:25;99528.03;;;-7.30;73.05
56074;BME280;41950;55.840;37.442;2023-02-28T06:06:50;99511.97;;;-7.32;72.93
56074;BME280;41950;55.840;37.442;2023-02-28T06:09:17;99539.28;;;-7.07;72.48
56074;BME280;41950;55.840;37.442;2023-02-28T06:11:43;99544.22;;;-6.92;72.27
56074;BME280;41950;55.840;37.442;2023-02-28T06:14:15;99537.72;;;-6.87;70.79
56074;BME280;41950;55.840;37.442;2023-02-28T06:16:42;99490.06;;;-6.99;71.15
56074;BME280;41950;55.840;37.442;2023-02-28T06:19:09;99508.34;;;-6.69;71.09
56074;BME280;41950;55.840;37.442;2023-02-28T06:21:35;99471.81;;;-6.77;70.19
56074;BME280;41950;55.840;37.442;2023-02-28T06:24:02;99454.28;;;-6.74;69.50
56074;BME280;41950;55.840;37.442;2023-02-28T06:26:28;99502.75;;;-6.45;68.89
56074;BME280;41950;55.840;37.442;2023-02-28T06:28:54;99497.19;;;-6.38;69.25
56074;BME280;41950;55.840;37.442;2023-02-28T06:31:20;99471.66;;;-6.44;69.00
56074;BME280;41950;55.840;37.442;2023-02-28T06:33:47;99498.31;;;-6.14;69.15
56074;BME280;41950;55.840;37.442;2023-02-28T06:36:14;99491.50;;;-5.97;69.08
56074;BME280;41950;55.840;37.442;2023-02-28T06:38:40;99419.75;;;-6.20;68.69
56074;BME280;41950;55.840;37.442;2023-02-28T06:41:07;99460.34;;;-5.77;67.98
56074;BME280;41950;55.840;37.442;2023-02-28T06:43:35;99456.69;;;-5.83;68.12
56074;BME280;41950;55.840;37.442;2023-02-28T06:46:04;99449.53;;;-5.74;68.02
56074;BME280;41950;55.840;37.442;2023-02-28T06:48:30;99449.78;;;-5.68;67.74
56074;BME280;41950;55.840;37.442;2023-02-28T06:51:06;99436.88;;;-5.74;67.44
56074;BME280;41950;55.840;37.442;2023-02-28T06:53:32;99439.00;;;-5.83;67.53
56074;BME280;41950;55.840;37.442;2023-02-28T06:55:58;99434.88;;;-5.81;68.08
56074;BME280;41950;55.840;37.442;2023-02-28T06:58:24;99412.81;;;-5.85;67.80
56074;BME280;41950;55.840;37.442;2023-02-28T07:00:51;99412.66;;;-5.69;68.45
56074;BME280;41950;55.840;37.442;2023-02-28T07:03:17;99405.03;;;-5.50;68.14
56074;BME280;41950;55.840;37.442;2023-02-28T07:05:44;99390.09;;;-5.45;68.08
56074;BME280;41950;55.840;37.442;2023-02-28T07:08:10;99384.09;;;-5.47;67.57
56074;BME280;41950;55.840;37.442;2023-02-28T07:10:38;99353.97;;;-5.62;67.67
56074;BME280;41950;55.840;37.442;2023-02-28T07:13:05;99384.22;;;-5.44;67.88
56074;BME280;41950;55.840;37.442;2023-02-28T07:15:31;99342.03;;;-5.66;67.97
56074;BME280;41950;55.840;37.442;2023-02-28T07:17:57;99294.03;;;-5.85;68.28
56074;BME280;41950;55.840;37.442;2023-02-28T07:20:23;99353.88;;;-5.44;68.46
56074;BME280;41950;55.840;37.442;2023-02-28T07:22:50;99366.38;;;-5.26;68.19
56074;BME280;41950;55.840;37.442;2023-02-28T07:25:26;99366.72;;;-5.19;67.78
56074;BME280;41950;55.840;37.442;2023-02-28T07:27:52;99344.88;;;-5.17;68.15
56074;BME280;41950;55.840;37.442;2023-02-28T07:30:18;99372.25;;;-5.07;68.22
56074;BME280;41950;55.840;37.442;2023-02-28T07:32:44;99360.97;;;-5.15;68.10
56074;BME280;41950;55.840;37.442;2023-02-28T07:35:10;99347.91;;;-5.03;68.32
56074;BME280;41950;55.840;37.442;2023-02-28T07:37:36;99365.31;;;-4.90;67.77
56074;BME280;41950;55.840;37.442;2023-02-28T07:40:06;99278.31;;;-5.37;68.14
56074;BME280;41950;55.840;37.442;2023-02-28T07:42:37;99336.56;;;-4.92;68.45
56074;BME280;41950;55.840;37.442;2023-02-28T07:45:04;99351.41;;;-4.79;68.62
56074;BME280;41950;55.840;37.442;2023-02-28T07:47:30;99347.16;;;-4.80;68.53
56074;BME280;41950;55.840;37.442;2023-02-28T07:49:57;99337.94;;;-4.78;68.57
56074;BME280;41950;55.840;37.442;2023-02-28T07:52:23;99338.53;;;-4.62;68.63
56074;BME280;41950;55.840;37.442;2023-02-28T07:54:50;99338.81;;;-4.55;68.23
56074;BME280;41950;55.840;37.442;2023-02-28T07:57:15;99339.44;;;-4.38;68.42
56074;BME280;41950;55.840;37.442;2023-02-28T07:59:41;99340.97;;;-4.18;67.63
56074;BME280;41950;55.840;37.442;2023-02-28T08:02:13;99315.94;;;-4.10;67.39
56074;BME280;41950;55.840;37.442;2023-02-28T08:04:38;99307.78;;;-4.25;67.33
56074;BME280;41950;55.840;37.442;2023-02-28T08:07:04;99300.88;;;-4.53;67.78
56074;BME280;41950;55.840;37.442;2023-02-28T08:09:30;99282.13;;;-4.58;68.38
56074;BME280;41950;55.840;37.442;2023-02-28T08:11:59;99294.84;;;-4.33;68.48
56074;BME280;41950;55.840;37.442;2023-02-28T08:14:28;99206.41;;;-4.75;68.21
56074;BME280;41950;55.840;37.442;2023-02-28T08:16:54;99243.91;;;-4.41;68.38
56074;BME280;41950;55.840;37.442;2023-02-28T08:19:19;99272.72;;;-4.13;68.51
56074;BME280;41950;55.840;37.442;2023-02-28T08:21:45;99264.22;;;-4.15;68.64
56074;BME280;41950;55.840;37.442;2023-02-28T08:24:11;99268.00;;;-4.04;68.85
56074;BME280;41950;55.840;37.442;2023-02-28T08:26:37;99268.38;;;-3.92;68.72
56074;BME280;41950;55.840;37.442;2023-02-28T08:29:09;99250.69;;;-4.16;68.65
56074;BME280;41950;55.840;37.442;2023-02-28T08:31:36;99323.50;;;-3.86;68.94
56074;BME280;41950;55.840;37.442;2023-02-28T08:34:09;99283.97;;;-4.07;68.88
56074;BME280;41950;55.840;37.442;2023-02-28T08:36:36;99314.56;;;-3.77;69.25
56074;BME280;41950;55.840;37.442;2023-02-28T08:39:03;99298.56;;;-3.74;69.29
56074;BME280;41950;55.840;37.442;2023-02-28T08:41:29;99273.69;;;-3.84;69.24
56074;BME280;41950;55.840;37.442;2023-02-28T08:43:55;99330.53;;;-3.54;69.32
56074;BME280;41950;55.840;37.442;2023-02-28T08:46:21;99310.34;;;-3.51;69.67
56074;BME280;41950;55.840;37.442;2023-02-28T08:48:47;99275.75;;;-3.74;69.42
56074;BME280;41950;55.840;37.442;2023-02-28T08:51:14;99306.06;;;-3.52;69.92
56074;BME280;41950;55.840;37.442;2023-02-28T08:53:44;99264.22;;;-3.64;69.96
56074;BME280;41950;55.840;37.442;2023-02-28T08:56:12;99295.41;;;-3.42;69.53
56074;BME280;41950;55.840;37.442;2023-02-28T08:58:38;99291.00;;;-3.47;69.83
56074;BME280;41950;55.840;37.442;2023-02-28T09:01:26;99289.50;;;-3.40;70.10
56074;BME280;41950;55.840;37.442;2023-02-28T09:03:56;99268.44;;;-3.38;69.78
56074;BME280;41950;55.840;37.442;2023-02-28T09:06:24;99222.38;;;-3.52;69.98
56074;BME280;41950;55.840;37.442;2023-02-28T09:08:50;99260.41;;;-3.25;69.76
56074;BME280;41950;55.840;37.442;2023-02-28T09:11:16;99184.06;;;-3.59;69.55
56074;BME280;41950;55.840;37.442;2023-02-28T09:13:43;99238.78;;;-3.12;69.56
56074;BME280;41950;55.840;37.442;2023-02-28T09:16:12;99220.69;;;-3.24;69.14
56074;BME280;41950;55.840;37.442;2023-02-28T09:18:38;99220.13;;;-3.14;69.40
56074;BME280;41950;55.840;37.442;2023-02-28T09:21:06;99254.84;;;-3.13;69.25
56074;BME280;41950;55.840;37.442;2023-02-28T09:23:33;99194.50;;;-3.50;69.70
56074;BME280;41950;55.840;37.442;2023-02-28T09:26:01;99219.56;;;-3.32;69.34
56074;BME280;41950;55.840;37.442;2023-02-28T09:28:27;99259.66;;;-3.22;69.80
56074;BME280;41950;55.840;37.442;2023-02-28T09:30:56;99256.16;;;-3.26;69.90
56074;BME280;41950;55.840;37.442;2023-02-28T09:33:43;99273.63;;;-3.35;70.42
56074;BME280;41950;55.840;37.442;2023-02-28T09:36:09;99234.66;;;-3.37;70.79
56074;BME280;41950;55.840;37.442;2023-02-28T09:38:34;99212.00;;;-3.31;70.51
56074;BME280;41950;55.840;37.442;2023-02-28T09:41:11;99201.38;;;-3.19;70.12
56074;BME280;41950;55.840;37.442;2023-02-28T09:43:41;99189.50;;;-3.20;70.18
56074;BME280;41950;55.840;37.442;2023-02-28T09:49:21;99211.88;;;-3.07;70.44
56074;BME280;41950;55.840;37.442;2023-02-28T09:52:17;99211.78;;;-3.10;70.38
56074;BME280;41950;55.840;37.442;2023-02-28T09:54:45;99199.09;;;-3.10;70.96
56074;BME280;41950;55.840;37.442;2023-02-28T09:57:22;99188.31;;;-3.01;70.49
56074;BME280;41950;55.840;37.442;2023-02-28T10:05:51;99173.88;;;-3.04;71.36
56074;BME280;41950;55.840;37.442;2023-02-28T10:08:41;99174.88;;;-2.99;71.46
56074;BME280;41950;55.840;37.442;2023-02-28T10:11:13;99157.13;;;-2.99;71.54
56074;BME280;41950;55.840;37.442;2023-02-28T10:16:22;99156.25;;;-2.99;71.74
56074;BME280;41950;55.840;37.442;2023-02-28T10:18:57;99164.97;;;-2.90;71.66
56074;BME280;41950;55.840;37.442;2023-02-28T10:21:57;99159.69;;;-2.97;71.67
56074;BME280;41950;55.840;37.442;2023-02-28T10:24:33;99144.50;;;-2.96;72.04
56074;BME280;41950;55.840;37.442;2023-02-28T10:27:10;99115.16;;;-3.16;71.90
56074;BME280;41950;55.840;37.442;2023-02-28T10:29:42;99142.78;;;-2.97;72.11
56074;BME280;41950;55.840;37.442;2023-02-28T10:32:12;99143.59;;;-2.98;72.42
56074;BME280;41950;55.840;37.442;2023-02-28T10:34:40;99150.41;;;-2.97;72.42
56074;BME280;41950;55.840;37.442;2023-02-28T10:37:05;99119.34;;;-3.18;72.69
56074;BME280;41950;55.840;37.442;2023-02-28T10:39:44;99115.06;;;-3.19;73.03
56074;BME280;41950;55.840;37.442;2023-02-28T10:42:23;99098.06;;;-3.23;73.17
56074;BME280;41950;55.840;37.442;2023-02-28T10:45:27;99026.78;;;-3.61;73.13
56074;BME280;41950;55.840;37.442;2023-02-28T10:50:51;99131.78;;;-2.97;73.45
56074;BME280;41950;55.840;37.442;2023-02-28T10:53:35;99105.44;;;-3.01;73.61
56074;BME280;41950;55.840;37.442;2023-02-28T10:56:05;99116.66;;;-2.93;73.74
56074;BME280;41950;55.840;37.442;2023-02-28T10:58:55;99117.00;;;-2.79;73.37
56074;BME280;41950;55.840;37.442;2023-02-28T11:01:40;99103.22;;;-2.89;73.75
56074;BME280;41950;55.840;37.442;2023-02-28T11:07:20;99092.00;;;-2.97;74.53
56074;BME280;41950;55.840;37.442;2023-02-28T11:09:50;99099.88;;;-2.88;74.42
56074;BME280;41950;55.840;37.442;2023-02-28T11:12:37;99050.94;;;-3.14;74.34
56074;BME280;41950;55.840;37.442;2023-02-28T11:15:18;99063.38;;;-2.91;74.77
56074;BME280;41950;55.840;37.442;2023-02-28T11:20:39;99062.75;;;-2.83;75.32
56074;BME280;41950;55.840;37.442;2023-02-28T11:23:12;99050.06;;;-2.83;75.69
56074;BME280;41950;55.840;37.442;2023-02-28T11:25:39;99064.06;;;-2.65;75.89
56074;BME280;41950;55.840;37.442;2023-02-28T11:28:21;99085.78;;;-2.43;75.86
56074;BME280;41950;55.840;37.442;2023-02-28T11:31:00;99033.28;;;-2.76;75.31
56074;BME280;41950;55.840;37.442;2023-02-28T11:33:32;99087.47;;;-2.44;75.13
56074;BME280;41950;55.840;37.442;2023-02-28T11:36:08;99068.66;;;-2.49;75.42
56074;BME280;41950;55.840;37.442;2023-02-28T11:38:35;99071.47;;;-2.40;75.59
56074;BME280;41950;55.840;37.442;2023-02-28T11:46:53;99047.75;;;-2.39;76.87
56074;BME280;41950;55.840;37.442;2023-02-28T11:49:45;99050.34;;;-2.37;77.62
56074;BME280;41950;55.840;37.442;2023-02-28T11:55:38;99058.03;;;-2.34;78.28
56074;BME280;41950;55.840;37.442;2023-02-28T11:58:33;99046.69;;;-2.47;79.33
56074;BME280;41950;55.840;37.442;2023-02-28T12:01:35;99045.81;;;-2.49;79.95
56074;BME280;41950;55.840;37.442;2023-02-28T12:26:46;99007.06;;;-2.75;82.13
56074;BME280;41950;55.840;37.442;2023-02-28T12:29:31;99016.63;;;-2.66;82.51
56074;BME280;41950;55.840;37.442;2023-02-28T12:35:04;99019.75;;;-2.75;83.06
56074;BME280;41950;55.840;37.442;2023-02-28T12:40:41;98996.06;;;-2.75;83.48
56074;BME280;41950;55.840;37.442;2023-02-28T12:43:11;98988.44;;;-2.75;83.83
56074;BME280;41950;55.840;37.442;2023-02-28T12:46:17;98988.59;;;-2.69;83.89
56074;BME280;41950;55.840;37.442;2023-02-28T12:49:12;98977.69;;;-2.65;83.78
56074;BME280;41950;55.840;37.442;2023-02-28T12:51:38;98969.06;;;-2.72;83.57
56074;BME280;41950;55.840;37.442;2023-02-28T12:59:53;98948.28;;;-2.56;83.15
56074;BME280;41950;55.840;37.442;2023-02-28T13:10:46;98927.97;;;-2.54;83.16
56074;BME280;41950;55.840;37.442;2023-02-28T13:13:17;98939.94;;;-2.50;83.03
56074;BME280;41950;55.840;37.442;2023-02-28T13:16:05;98934.84;;;-2.50;82.81
56074;BME280;41950;55.840;37.442;2023-02-28T13:18:41;98935.72;;;-2.48;82.91
56074;BME280;41950;55.840;37.442;2023-02-28T13:21:21;98937.56;;;-2.42;83.01
56074;BME280;41950;55.840;37.442;2023-02-28T13:29:52;98930.13;;;-2.35;82.63
56074;BME280;41950;55.840;37.442;2023-02-28T13:32:38;98916.72;;;-2.28;82.59
56074;BME280;41950;55.840;37.442;2023-02-28T13:37:45;98895.53;;;-2.28;82.61
56074;BME280;41950;55.840;37.442;2023-02-28T13:40:28;98897.38;;;-2.20;82.51
56074;BME280;41950;55.840;37.442;2023-02-28T13:42:58;98860.50;;;-2.43;82.44
56074;BME280;41950;55.840;37.442;2023-02-28T13:45:27;98892.25;;;-2.23;82.67
56074;BME280;41950;55.840;37.442;2023-02-28T13:48:01;98887.94;;;-2.27;82.78
56074;BME280;41950;55.840;37.442;2023-02-28T13:50:34;98893.31;;;-2.13;82.76
56074;BME280;41950;55.840;37.442;2023-02-28T13:56:23;98903.53;;;-2.10;82.52
56074;BME280;41950;55.840;37.442;2023-02-28T13:59:06;98873.72;;;-2.19;82.64
56074;BME280;41950;55.840;37.442;2023-02-28T14:07:02;98889.13;;;-2.09;82.73
56074;BME280;41950;55.840;37.442;2023-02-28T14:09:34;98900.31;;;-2.01;82.73
56074;BME280;41950;55.840;37.442;2023-02-28T14:18:32;98861.72;;;-2.24;83.41
56074;BME280;41950;55.840;37.442;2023-02-28T14:21:02;98888.31;;;-2.08;83.71
56074;BME280;41950;55.840;37.442;2023-02-28T14:32:13;98873.13;;;-2.05;84.21
56074;BME280;41950;55.840;37.442;2023-02-28T14:34:53;98871.47;;;-2.03;84.34
56074;BME280;41950;55.840;37.442;2023-02-28T14:37:28;98835.41;;;-2.26;84.75
56074;BME280;41950;55.840;37.442;2023-02-28T14:39:57;98825.09;;;-2.34;85.13
56074;BME280;41950;55.840;37.442;2023-02-28T14:42:35;98858.63;;;-2.09;85.44
56074;BME280;41950;55.840;37.442;2023-02-28T14:45:03;98829.72;;;-2.14;85.50
56074;BME280;41950;55.840;37.442;2023-02-28T14:47:34;98855.31;;;-2.05;85.61
56074;BME280;41950;55.840;37.442;2023-02-28T14:50:04;98832.31;;;-2.11;85.60
56074;BME280;41950;55.840;37.442;2023-02-28T14:52:33;98843.56;;;-1.99;85.65
56074;BME280;41950;55.840;37.442;2023-02-28T14:55:03;98842.81;;;-1.95;85.63
56074;BME280;41950;55.840;37.442;2023-02-28T14:57:35;98847.91;;;-1.93;85.82
56074;BME280;41950;55.840;37.442;2023-02-28T15:02:36;98849.69;;;-1.91;85.87
56074;BME280;41950;55.840;37.442;2023-02-28T15:07:38;98854.81;;;-1.89;85.79
56074;BME280;41950;55.840;37.442;2023-02-28T15:10:25;98796.47;;;-2.25;85.80
56074;BME280;41950;55.840;37.442;2023-02-28T15:13:02;98842.97;;;-1.87;85.77
56074;BME280;41950;55.840;37.442;2023-02-28T15:18:07;98834.66;;;-1.77;85.79
56074;BME280;41950;55.840;37.442;2023-02-28T15:20:34;98839.78;;;-1.75;85.58
56074;BME280;41950;55.840;37.442;2023-02-28T15:23:02;98839.78;;;-1.75;85.58
56074;BME280;41950;55.840;37.442;2023-02-28T15:25:30;98834.75;;;-1.72;85.76
56074;BME280;41950;55.840;37.442;2023-02-28T15:27:57;98823.63;;;-1.77;85.70
56074;BME280;41950;55.840;37.442;2023-02-28T15:30:27;98837.28;;;-1.72;85.71
56074;BME280;41950;55.840;37.442;2023-02-28T15:35:35;98837.50;;;-1.62;85.45